»·PEaware :: N604S KSAN-KRDD

N604S :: KSAN-KRDD

FLIGHT INFORMATION

Flight Status: Arrived
Operator: Privately registered:
United States
More flights under this callsign
Pilot: Andy P. (22680)
Aircraft: GATES LEARJET LEARJET 35/36
(LJ35)
More flights by this aircraft type
Origin: KSAN San Diego Intl-Lindbergh
United States
Destination: KRDD Redding Mun
United States
More flights between these airports :: More routes between these airports
Route: PADRZ2 CHKNN LAX J1 AVE J189 LIN RBL
File this flight plan on PilotEdge
Remarks:
Altitude:
(Current/Filed)
34,000ft
Speed:
(Current/Filed)
465kts
Departed: 08-Oct-20 11:21 AM
Arrived: 08-Oct-20 12:42 PM
Distance/Time
Traveled:
527nm/1:21
Distance/Time
To Go:
Arrived

Flight Plot

Page will automatically refresh every two minutes.

Flight plan parsing failed; only flown route is shown


Map Options




Map Legend


Flown Route
Filed Route
Departure Airport
Arrival Airport
Navaid (VOR, NDB)
Fix

Horizontal Profiles

Position Reports

Time Latitude Longitude Heading Altitude Ground
Speed
08-Oct-20 10:55 32.733334 -117.178207 343 18ft 0kts
08-Oct-20 10:56 32.733334 -117.178207 343 18ft 0kts
08-Oct-20 10:57 32.733334 -117.178207 343 18ft 0kts
08-Oct-20 10:58 32.733334 -117.178207 343 18ft 0kts
08-Oct-20 10:59 32.733334 -117.178207 343 18ft 0kts
08-Oct-20 11:00 32.733334 -117.178207 343 18ft 0kts
08-Oct-20 11:01 32.733334 -117.178207 343 18ft 0kts
08-Oct-20 11:02 32.733334 -117.178207 343 18ft 0kts
08-Oct-20 11:03 32.733334 -117.178207 343 18ft 0kts
08-Oct-20 11:04 32.733334 -117.178207 343 18ft 0kts
08-Oct-20 11:05 32.733334 -117.178207 343 18ft 0kts
08-Oct-20 11:06 32.733334 -117.178207 343 18ft 0kts
08-Oct-20 11:07 32.733334 -117.178207 343 18ft 0kts
08-Oct-20 11:08 32.733334 -117.178207 343 18ft 0kts
08-Oct-20 11:09 32.733334 -117.178207 343 18ft 0kts
08-Oct-20 11:10 32.733334 -117.178207 343 18ft 0kts
08-Oct-20 11:11 32.733334 -117.178207 343 18ft 0kts
08-Oct-20 11:11 32.733334 -117.178207 343 18ft 0kts
08-Oct-20 11:13 32.733334 -117.178207 343 18ft 0kts
08-Oct-20 11:13 32.733334 -117.178207 343 18ft 0kts
08-Oct-20 11:14 32.733334 -117.178208 343 18ft 0kts
08-Oct-20 11:15 32.733337 -117.178209 343 18ft 0kts
08-Oct-20 11:16 32.733339 -117.178210 343 18ft 0kts
08-Oct-20 11:17 32.733045 -117.179360 126 18ft 13kts
08-Oct-20 11:18 32.731112 -117.175568 156 18ft 0kts
08-Oct-20 11:19 32.731109 -117.175566 156 18ft 0kts
08-Oct-20 11:20 32.732612 -117.185697 285 18ft 136kts
08-Oct-20 11:21 32.755287 -117.240719 304 1546ft 199kts
08-Oct-20 11:22 32.787535 -117.294894 305 3158ft 217kts
08-Oct-20 11:23 32.821611 -117.354061 306 6160ft 220kts
08-Oct-20 11:24 32.860427 -117.412451 305 8682ft 229kts
08-Oct-20 11:25 32.899995 -117.474209 303 11354ft 239kts
08-Oct-20 11:26 32.944375 -117.543477 303 13771ft 308kts
08-Oct-20 11:27 32.998173 -117.627297 302 17846ft 326kts
08-Oct-20 11:28 33.054453 -117.714823 305 21105ft 342kts
08-Oct-20 11:29 33.126779 -117.793637 315 24295ft 360kts
08-Oct-20 11:30 33.204138 -117.872417 315 26954ft 369kts
08-Oct-20 11:31 33.276073 -117.942299 315 28890ft 376kts
08-Oct-20 11:32 33.358611 -118.022912 315 30341ft 391kts
08-Oct-20 11:33 33.444169 -118.106759 315 31646ft 404kts
08-Oct-20 11:34 33.525930 -118.187088 315 32890ft 412kts
08-Oct-20 11:35 33.612590 -118.256384 330 34005ft 426kts
08-Oct-20 11:36 33.712311 -118.311391 330 34053ft 448kts
08-Oct-20 11:37 33.817626 -118.369171 330 34052ft 459kts
08-Oct-20 11:38 33.932112 -118.436547 322 34044ft 456kts
08-Oct-20 11:39 34.029158 -118.533417 314 34046ft 453kts
08-Oct-20 11:40 34.123362 -118.633131 313 34045ft 447kts
08-Oct-20 11:41 34.206898 -118.721804 313 34044ft 444kts
08-Oct-20 11:42 34.299626 -118.820516 313 34053ft 443kts
08-Oct-20 11:43 34.388298 -118.907127 319 34055ft 446kts
08-Oct-20 11:44 34.490468 -118.992995 319 34068ft 446kts
08-Oct-20 11:45 34.592472 -119.078695 319 34092ft 446kts
08-Oct-20 11:46 34.692405 -119.162789 319 34095ft 446kts
08-Oct-20 11:47 34.786608 -119.242265 319 34087ft 447kts
08-Oct-20 11:48 34.888914 -119.328827 319 34082ft 447kts
08-Oct-20 11:49 34.991027 -119.415496 318 34065ft 448kts
08-Oct-20 11:50 35.093485 -119.502721 318 34054ft 448kts
08-Oct-20 11:51 35.195615 -119.589946 318 34053ft 448kts
08-Oct-20 11:52 35.299010 -119.678562 318 34034ft 459kts
08-Oct-20 11:53 35.404001 -119.768770 318 34035ft 460kts
08-Oct-20 11:54 35.508624 -119.858955 317 34003ft 456kts
08-Oct-20 11:55 35.611887 -119.948144 318 34008ft 455kts
08-Oct-20 11:56 35.729571 -120.012356 334 34006ft 470kts
08-Oct-20 11:57 35.853931 -120.063408 334 34004ft 470kts
08-Oct-20 11:58 35.977737 -120.114355 334 34006ft 469kts
08-Oct-20 11:59 36.101750 -120.165549 334 34001ft 469kts
08-Oct-20 12:00 36.225632 -120.216857 334 33992ft 469kts
08-Oct-20 12:01 36.349688 -120.268419 334 33993ft 472kts
08-Oct-20 12:02 36.475751 -120.321014 334 33996ft 483kts
08-Oct-20 12:03 36.603778 -120.374564 334 33995ft 486kts
08-Oct-20 12:04 36.731935 -120.428367 334 33994ft 486kts
08-Oct-20 12:05 36.860011 -120.482332 334 33992ft 486kts
08-Oct-20 12:06 36.988566 -120.536697 334 33992ft 486kts
08-Oct-20 12:07 37.116265 -120.590882 334 33990ft 483kts
08-Oct-20 12:08 37.243288 -120.644991 334 33986ft 482kts
08-Oct-20 12:09 37.371017 -120.699599 334 33987ft 485kts
08-Oct-20 12:10 37.498839 -120.754428 334 33987ft 486kts
08-Oct-20 12:11 37.627184 -120.809687 334 33987ft 487kts
08-Oct-20 12:12 37.755184 -120.864998 334 33989ft 487kts
08-Oct-20 12:13 37.883434 -120.920624 334 33997ft 487kts
08-Oct-20 12:14 38.011678 -120.976456 334 34020ft 487kts
08-Oct-20 12:15 38.136400 -121.041642 328 34006ft 482kts
08-Oct-20 12:16 38.258462 -121.112979 329 34006ft 483kts
08-Oct-20 12:17 38.380266 -121.185122 329 33035ft 485kts
08-Oct-20 12:18 38.503415 -121.258544 330 31196ft 489kts
08-Oct-20 12:19 38.626971 -121.332508 331 29358ft 493kts
08-Oct-20 12:20 38.751691 -121.407485 331 27510ft 497kts
08-Oct-20 12:21 38.876597 -121.482845 332 25660ft 491kts
08-Oct-20 12:22 39.000047 -121.557276 332 24094ft 483kts
08-Oct-20 12:23 39.119950 -121.630486 332 22960ft 481kts
08-Oct-20 12:24 39.238130 -121.702628 332 21267ft 450kts
08-Oct-20 12:25 39.353457 -121.773337 333 19975ft 465kts
08-Oct-20 12:26 39.467384 -121.843371 333 18673ft 444kts
08-Oct-20 12:27 39.578742 -121.912095 333 17226ft 439kts
08-Oct-20 12:28 39.688802 -121.977087 342 16062ft 428kts
08-Oct-20 12:29 39.804234 -122.019770 341 14699ft 429kts
08-Oct-20 12:30 39.915687 -122.063037 341 13398ft 412kts
08-Oct-20 12:31 40.022881 -122.104375 340 12095ft 373kts
08-Oct-20 12:32 40.116137 -122.140451 340 10781ft 330kts
08-Oct-20 12:33 40.198769 -122.172471 341 10034ft 287kts
08-Oct-20 12:34 40.268157 -122.199441 341 8772ft 277kts
08-Oct-20 12:35 40.333073 -122.224700 342 7506ft 258kts
08-Oct-20 12:36 40.399284 -122.249311 348 5595ft 248kts
08-Oct-20 12:37 40.463320 -122.259251 356 3376ft 211kts
08-Oct-20 12:38 40.516281 -122.263139 356 2115ft 157kts
08-Oct-20 12:39 40.550177 -122.274668 274 1405ft 117kts
08-Oct-20 12:40 40.530060 -122.294974 179 719ft 105kts
08-Oct-20 12:41 40.508995 -122.294903 180 505ft 32kts
08-Oct-20 12:42 40.508526 -122.296987 232 505ft 12kts
08-Oct-20 12:44 40.508396 -122.299243 1 505ft 0kts

Navigation Log

Ident Type
Flight plan parsing failed, navigation log unavailable